createdAt,value
2022-08-26T00:02:34.895Z,0.00
2022-08-26T00:07:33.717Z,0.00
2022-08-26T00:12:37.584Z,0.00
2022-08-26T00:17:33.464Z,0.00
2022-08-26T00:22:33.404Z,0.00
2022-08-26T00:27:33.358Z,0.00
2022-08-26T00:32:33.309Z,0.00
2022-08-26T00:37:33.256Z,0.00
2022-08-26T00:42:34.196Z,0.00
2022-08-26T00:47:33.149Z,0.00
2022-08-26T00:52:33.090Z,0.00
2022-08-26T00:57:33.041Z,0.00
2022-08-26T01:02:33.071Z,0.00
2022-08-26T01:07:32.940Z,0.00
2022-08-26T01:12:32.897Z,0.00
2022-08-26T01:17:33.806Z,0.00
2022-08-26T01:22:32.757Z,0.00
2022-08-26T01:27:32.947Z,0.00
2022-08-26T01:32:32.691Z,0.00
2022-08-26T01:37:32.589Z,0.00
2022-08-26T01:42:32.562Z,0.00
2022-08-26T01:47:32.493Z,0.00
2022-08-26T01:52:32.453Z,0.00
2022-08-26T01:57:32.383Z,0.00
2022-08-26T02:02:32.343Z,0.00
2022-08-26T02:07:33.331Z,0.00
2022-08-26T02:12:32.302Z,0.00
2022-08-26T02:17:32.148Z,0.00
2022-08-26T02:22:33.116Z,0.00
2022-08-26T02:27:32.618Z,0.00
2022-08-26T02:32:32.062Z,0.00
2022-08-26T02:37:32.036Z,0.00
2022-08-26T02:42:31.918Z,0.00
2022-08-26T02:47:32.364Z,0.00
2022-08-26T02:52:31.789Z,0.00
2022-08-26T02:57:31.726Z,0.00
2022-08-26T03:02:31.701Z,0.00
2022-08-26T03:07:31.614Z,0.00
2022-08-26T03:12:31.568Z,0.00
2022-08-26T03:17:31.503Z,0.00
2022-08-26T03:22:31.444Z,0.00
2022-08-26T03:27:31.403Z,0.00
2022-08-26T03:32:31.335Z,0.00
2022-08-26T03:37:31.306Z,0.00
2022-08-26T03:42:31.222Z,0.00
2022-08-26T03:47:31.262Z,0.00
2022-08-26T03:52:31.216Z,0.00
2022-08-26T03:57:31.177Z,4.00
2022-08-26T04:02:31.032Z,4.00
2022-08-26T04:07:31.935Z,12.00
2022-08-26T04:12:30.947Z,16.00
2022-08-26T04:17:30.849Z,32.00
2022-08-26T04:22:30.844Z,72.00
2022-08-26T04:27:30.742Z,116.00
2022-08-26T04:32:30.715Z,156.00
2022-08-26T04:37:30.669Z,196.00
2022-08-26T04:42:34.242Z,276.00
2022-08-26T04:47:32.358Z,344.00
2022-08-26T04:52:31.018Z,448.00
2022-08-26T04:57:30.391Z,748.00
2022-08-26T05:02:30.347Z,1088.00
2022-08-26T05:07:30.397Z,1388.00
2022-08-26T05:12:30.297Z,2232.00
2022-08-26T05:17:30.410Z,2940.00
2022-08-26T05:22:30.399Z,3196.00
2022-08-26T05:27:30.231Z,3072.00
2022-08-26T05:32:30.275Z,3088.00
2022-08-26T05:39:03.916Z,3540.00
2022-08-26T05:44:03.862Z,4612.00
2022-08-26T05:49:03.926Z,4776.00
2022-08-26T05:54:03.845Z,6048.00
2022-08-26T05:59:03.803Z,7012.00
2022-08-26T06:04:03.723Z,6612.00
2022-08-26T06:09:03.652Z,6956.00
2022-08-26T06:14:04.307Z,7260.00
2022-08-26T06:19:03.527Z,7640.00
2022-08-26T06:24:04.424Z,7596.00
2022-08-26T06:29:03.497Z,8220.00
2022-08-26T06:34:07.267Z,11192.00
2022-08-26T06:39:04.366Z,10612.00
2022-08-26T06:44:03.216Z,9660.00
2022-08-26T06:49:03.224Z,8776.00
2022-08-26T06:54:03.123Z,8820.00
2022-08-26T06:59:03.056Z,9696.00
2022-08-26T07:04:03.011Z,10280.00
2022-08-26T07:09:03.407Z,12912.00
2022-08-26T07:14:02.903Z,12256.00
2022-08-26T07:19:03.441Z,12080.00
2022-08-26T07:24:03.787Z,10832.00
2022-08-26T07:29:02.737Z,11348.00
2022-08-26T07:34:02.671Z,10252.00
2022-08-26T07:39:02.646Z,12212.00
2022-08-26T07:44:02.562Z,13084.00
2022-08-26T07:49:02.625Z,14140.00
2022-08-26T07:54:02.478Z,15700.00
2022-08-26T07:59:02.439Z,13364.00
2022-08-26T08:04:02.447Z,13864.00
2022-08-26T08:09:02.329Z,15992.00
2022-08-26T08:14:03.280Z,16192.00
2022-08-26T08:19:03.708Z,15952.00
2022-08-26T08:24:03.251Z,12584.00
2022-08-26T08:29:02.122Z,11120.00
2022-08-26T08:34:02.109Z,13508.00
2022-08-26T08:39:01.979Z,13688.00
2022-08-26T08:44:01.943Z,13932.00
2022-08-26T08:49:01.885Z,14920.00
2022-08-26T08:54:01.811Z,13784.00
2022-08-26T08:59:01.763Z,13704.00
2022-08-26T09:04:01.703Z,12704.00
2022-08-26T09:09:01.653Z,15048.00
2022-08-26T09:14:01.607Z,17376.00
2022-08-26T09:19:01.548Z,17216.00
2022-08-26T09:24:01.489Z,17760.00
2022-08-26T09:29:01.453Z,19808.00
2022-08-26T09:34:01.377Z,20320.00
2022-08-26T09:39:01.333Z,22560.00
2022-08-26T09:44:01.270Z,25120.00
2022-08-26T09:49:01.228Z,30048.00
2022-08-26T09:54:01.164Z,27456.00
2022-08-26T09:59:01.141Z,26336.00
2022-08-26T10:04:01.108Z,22880.00
2022-08-26T10:09:02.735Z,24032.00
2022-08-26T10:14:00.986Z,27776.00
2022-08-26T10:19:00.928Z,20448.00
2022-08-26T10:24:00.919Z,18656.00
2022-08-26T10:29:00.833Z,15660.00
2022-08-26T10:34:00.857Z,14968.00
2022-08-26T10:39:00.722Z,15148.00
2022-08-26T10:44:00.753Z,16992.00
2022-08-26T10:49:00.699Z,18624.00
2022-08-26T10:54:00.551Z,18336.00
2022-08-26T10:59:01.591Z,14724.00
2022-08-26T11:04:00.638Z,13672.00
2022-08-26T11:09:00.397Z,16640.00
2022-08-26T11:14:00.356Z,17536.00
2022-08-26T11:19:00.290Z,19232.00
2022-08-26T11:24:00.234Z,21056.00
2022-08-26T11:29:00.200Z,22688.00
2022-08-26T11:34:00.239Z,20992.00
2022-08-26T11:39:08.968Z,20640.00
2022-08-26T11:44:00.053Z,20192.00
2022-08-26T11:49:00.011Z,17344.00
2022-08-26T11:53:59.964Z,17152.00
2022-08-26T11:59:00.932Z,15060.00
2022-08-26T12:03:59.973Z,16736.00
2022-08-26T12:08:59.804Z,12196.00
2022-08-26T12:13:59.760Z,13076.00
2022-08-26T12:18:59.694Z,16448.00
2022-08-26T12:23:59.628Z,16736.00
2022-08-26T12:28:59.622Z,17056.00
2022-08-26T12:33:59.545Z,19712.00
2022-08-26T12:38:59.509Z,25024.00
2022-08-26T12:43:59.442Z,19360.00
2022-08-26T12:48:59.395Z,22560.00
2022-08-26T12:53:59.335Z,15116.00
2022-08-26T12:58:59.258Z,9104.00
2022-08-26T13:03:59.205Z,15012.00
2022-08-26T13:08:59.168Z,18528.00
2022-08-26T13:13:59.088Z,15136.00
2022-08-26T13:18:59.090Z,16352.00
2022-08-26T13:23:59.089Z,19008.00
2022-08-26T13:29:01.446Z,18208.00
2022-08-26T13:33:59.046Z,19488.00
2022-08-26T13:38:58.864Z,19040.00
2022-08-26T13:43:59.533Z,17248.00
2022-08-26T13:48:59.931Z,17568.00
2022-08-26T13:53:58.690Z,13884.00
2022-08-26T13:58:58.694Z,11836.00
2022-08-26T14:03:58.706Z,11024.00
2022-08-26T14:08:58.559Z,8648.00
2022-08-26T14:13:58.498Z,7988.00
2022-08-26T14:18:58.438Z,8596.00
2022-08-26T14:24:00.927Z,8044.00
2022-08-26T14:28:58.431Z,9844.00
2022-08-26T14:33:58.309Z,8888.00
2022-08-26T14:38:58.231Z,11396.00
2022-08-26T14:43:58.189Z,13416.00
2022-08-26T14:49:02.060Z,15096.00
2022-08-26T14:53:58.031Z,14752.00
2022-08-26T14:58:58.025Z,12028.00
2022-08-26T15:03:57.965Z,13664.00
2022-08-26T15:08:57.886Z,13756.00
2022-08-26T15:13:57.840Z,12620.00
2022-08-26T15:18:57.893Z,10436.00
2022-08-26T15:23:57.836Z,11208.00
2022-08-26T15:29:00.760Z,10028.00
2022-08-26T15:33:58.646Z,10248.00
2022-08-26T15:38:57.591Z,8324.00
2022-08-26T15:43:57.513Z,6936.00
2022-08-26T15:48:57.440Z,7752.00
2022-08-26T15:53:57.379Z,8412.00
2022-08-26T15:58:57.326Z,9832.00
2022-08-26T16:03:57.332Z,7976.00
2022-08-26T16:08:58.327Z,10232.00
2022-08-26T16:13:57.311Z,9824.00
2022-08-26T16:18:57.140Z,7972.00
2022-08-26T16:23:57.078Z,6496.00
2022-08-26T16:28:57.034Z,4660.00
2022-08-26T16:33:56.994Z,4108.00
2022-08-26T16:38:56.922Z,4180.00
2022-08-26T16:43:56.860Z,4020.00
2022-08-26T16:48:56.917Z,3524.00
2022-08-26T16:53:56.875Z,2908.00
2022-08-26T16:58:56.710Z,2372.00
2022-08-26T17:03:56.760Z,2076.00
2022-08-26T17:08:56.608Z,1924.00
2022-08-26T17:13:56.564Z,1556.00
2022-08-26T17:18:56.487Z,1172.00
2022-08-26T17:23:56.442Z,1040.00
2022-08-26T17:28:56.452Z,912.00
2022-08-26T17:33:56.388Z,688.00
2022-08-26T17:40:06.695Z,468.00
2022-08-26T17:45:06.725Z,504.00
2022-08-26T17:50:06.515Z,308.00
2022-08-26T17:55:06.540Z,240.00
2022-08-26T18:00:06.445Z,236.00
2022-08-26T18:05:06.350Z,360.00
2022-08-26T18:10:08.216Z,360.00
2022-08-26T18:15:07.238Z,264.00
2022-08-26T18:20:06.195Z,216.00
2022-08-26T18:25:06.106Z,172.00
2022-08-26T18:30:06.100Z,108.00
2022-08-26T18:35:06.090Z,72.00
2022-08-26T18:40:06.058Z,36.00
2022-08-26T18:45:05.956Z,12.00
2022-08-26T18:50:05.870Z,8.00
2022-08-26T18:55:05.815Z,0.00
2022-08-26T19:00:05.773Z,4.00
2022-08-26T19:05:05.690Z,0.00
2022-08-26T19:10:05.630Z,0.00
2022-08-26T19:15:05.597Z,0.00
2022-08-26T19:20:05.511Z,0.00
2022-08-26T19:25:05.492Z,0.00
2022-08-26T19:30:05.455Z,0.00
2022-08-26T19:35:05.415Z,0.00
2022-08-26T19:40:06.429Z,0.00
2022-08-26T19:45:05.266Z,0.00
2022-08-26T19:50:05.217Z,0.00
2022-08-26T19:55:05.150Z,0.00
2022-08-26T20:00:05.084Z,0.00
2022-08-26T20:05:05.026Z,0.00
2022-08-26T20:10:04.987Z,0.00
2022-08-26T20:15:05.018Z,0.00
2022-08-26T20:20:04.871Z,0.00
2022-08-26T20:25:05.824Z,0.00
2022-08-26T20:30:04.769Z,0.00
2022-08-26T20:35:04.777Z,0.00
2022-08-26T20:40:04.693Z,0.00
2022-08-26T20:45:04.577Z,0.00
2022-08-26T20:50:04.540Z,0.00
2022-08-26T20:55:04.661Z,0.00
2022-08-26T21:00:04.486Z,0.00
2022-08-26T21:05:04.436Z,0.00
2022-08-26T21:10:04.310Z,0.00
2022-08-26T21:15:04.273Z,0.00
2022-08-26T21:20:04.203Z,0.00
2022-08-26T21:25:04.129Z,0.00
2022-08-26T21:30:04.077Z,0.00
2022-08-26T21:35:04.034Z,0.00
2022-08-26T21:40:04.204Z,0.00
2022-08-26T21:45:03.954Z,0.00
2022-08-26T21:50:03.985Z,0.00
2022-08-26T21:55:03.933Z,0.00
2022-08-26T22:00:04.942Z,0.00
2022-08-26T22:05:03.671Z,0.00
2022-08-26T22:10:03.694Z,0.00
2022-08-26T22:15:03.684Z,0.00
2022-08-26T22:20:03.623Z,0.00
2022-08-26T22:25:03.496Z,0.00
2022-08-26T22:30:03.502Z,0.00
2022-08-26T22:35:03.375Z,0.00
2022-08-26T22:40:04.379Z,0.00
2022-08-26T22:45:03.256Z,0.00
2022-08-26T22:50:03.215Z,0.00
2022-08-26T22:55:03.134Z,0.00
2022-08-26T23:00:04.177Z,0.00
2022-08-26T23:05:03.185Z,0.00
2022-08-26T23:10:02.992Z,0.00
2022-08-26T23:15:03.063Z,0.00
2022-08-26T23:20:02.876Z,0.00
2022-08-26T23:25:02.836Z,0.00
2022-08-26T23:30:02.782Z,0.00
2022-08-26T23:35:02.850Z,0.00
2022-08-26T23:40:02.708Z,0.00
2022-08-26T23:45:11.518Z,0.00
2022-08-26T23:50:02.606Z,0.00
2022-08-26T23:55:02.520Z,0.00
